Time;durP1;ratioP1;P1;durP2;ratioP2;P2;SDS_P1;SDS_P2;PMS_P1;PMS_P2;Temp;Humidity;BMP_temperature;BMP_pressure;BME280_temperature;BME280_humidity;BME280_pressure;Samples;Min_cycle;Max_cycle;Signal;HPM_P1;HPM_P2
2023/06/03 00:01:56;;;;;;;20.05;8.70;;;;;;;17.30;99.80;99672.56;5006137;28;20030;-19
2023/06/03 00:04:21;;;;;;;8.82;7.22;;;;;;;17.21;98.45;99681.22;5006287;28;20083;-19
2023/06/03 00:06:47;;;;;;;13.98;7.57;;;;;;;17.30;97.02;99683.34;5006323;28;20025;-19
2023/06/03 00:09:13;;;;;;;25.15;7.80;;;;;;;17.55;95.31;99680.59;5006143;28;20022;-19
2023/06/03 00:11:39;;;;;;;15.07;7.95;;;;;;;17.49;96.06;99687.09;5006064;28;20182;-22
2023/06/03 00:14:05;;;;;;;12.25;6.70;;;;;;;17.39;95.86;99677.13;5006240;28;20424;-23
2023/06/03 00:16:34;;;;;;;10.65;7.05;;;;;;;17.42;95.79;99679.28;5005996;28;20060;-19
2023/06/03 00:19:00;;;;;;;9.55;7.03;;;;;;;17.57;95.83;99681.13;5006034;28;20558;-21
2023/06/03 00:21:27;;;;;;;9.18;7.18;;;;;;;17.48;94.70;99690.84;5006198;28;20037;-19
2023/06/03 00:23:53;;;;;;;12.45;7.30;;;;;;;17.54;94.35;99681.66;5005975;28;20497;-24
2023/06/03 00:26:20;;;;;;;10.13;7.38;;;;;;;17.63;93.18;99698.91;5005768;28;20124;-20
2023/06/03 00:28:46;;;;;;;8.10;6.65;;;;;;;17.41;94.02;99690.34;5006256;28;20034;-19
2023/06/03 00:31:11;;;;;;;10.35;7.07;;;;;;;17.23;95.66;99689.81;5006003;28;20409;-19
2023/06/03 00:33:37;;;;;;;10.80;7.40;;;;;;;17.22;96.75;99690.94;5005384;28;20029;-19
2023/06/03 00:36:02;;;;;;;12.20;7.50;;;;;;;17.33;95.15;99693.59;5006204;28;20402;-19
2023/06/03 00:38:27;;;;;;;9.30;7.13;;;;;;;17.47;94.82;99689.25;5005994;28;20080;-19
2023/06/03 00:40:53;;;;;;;8.90;6.85;;;;;;;17.48;93.32;99682.78;5005505;28;20030;-20
2023/06/03 00:43:18;;;;;;;10.90;6.68;;;;;;;17.53;92.34;99690.84;5005757;28;20421;-19
2023/06/03 00:45:44;;;;;;;10.20;7.20;;;;;;;17.52;93.03;99691.91;5005653;28;20417;-20
2023/06/03 00:48:10;;;;;;;11.65;6.72;;;;;;;17.49;91.81;99689.78;5005924;28;20026;-19
2023/06/03 00:50:35;;;;;;;9.10;6.93;;;;;;;17.39;91.67;99676.34;5005596;28;20133;-23
2023/06/03 00:53:02;;;;;;;9.82;6.97;;;;;;;17.25;93.46;99665.31;5005646;28;20044;-20
2023/06/03 00:55:29;;;;;;;11.43;7.13;;;;;;;17.22;93.22;99666.66;5005560;28;20022;-19
2023/06/03 00:57:55;;;;;;;11.73;7.32;;;;;;;17.22;92.46;99682.84;5004287;28;20364;-19
2023/06/03 01:00:20;;;;;;;10.18;7.07;;;;;;;16.45;97.61;99661.28;5005935;28;20488;-20
2023/06/03 01:02:46;;;;;;;10.50;7.00;;;;;;;15.99;100.00;99661.16;5005514;28;20088;-19
2023/06/03 01:05:13;;;;;;;11.57;7.05;;;;;;;16.04;100.00;99677.34;5005262;28;20026;-19
2023/06/03 01:07:53;;;;;;;13.27;7.40;;;;;;;16.11;100.00;99685.16;5005571;28;20439;-19
2023/06/03 01:10:37;;;;;;;11.20;6.90;;;;;;;16.29;100.00;99683.06;5005395;28;20547;-20
2023/06/03 01:13:27;;;;;;;9.98;6.55;;;;;;;16.28;100.00;99676.84;5005784;28;20076;-19
2023/06/03 01:15:55;;;;;;;11.27;7.03;;;;;;;16.47;98.83;99669.88;5005432;28;20084;-19
2023/06/03 01:18:21;;;;;;;11.65;7.50;;;;;;;16.55;99.12;99678.50;5005227;28;20026;-20
2023/06/03 01:20:48;;;;;;;10.50;7.03;;;;;;;16.47;99.88;99677.97;5005652;28;20540;-19
2023/06/03 01:23:24;;;;;;;10.50;7.63;;;;;;;16.31;100.00;99679.00;5005371;28;20026;-19
2023/06/03 01:25:56;;;;;;;8.52;7.07;;;;;;;16.12;100.00;99669.81;5005367;28;20044;-20
2023/06/03 01:28:23;;;;;;;15.00;7.07;;;;;;;16.27;100.00;99667.97;5004908;28;20041;-19
2023/06/03 01:30:50;;;;;;;11.33;7.57;;;;;;;16.30;100.00;99668.50;5005061;28;20052;-22
2023/06/03 01:33:18;;;;;;;10.90;6.97;;;;;;;16.26;99.44;99652.09;5007095;28;20298;-18
2023/06/03 01:35:44;;;;;;;;;;;;;;;16.55;97.14;99673.13;5009225;28;20026;-20
2023/06/03 01:38:10;;;;;;;14.10;7.97;;;;;;;16.46;97.41;99681.72;5008764;28;20347;-19
2023/06/03 01:40:37;;;;;;;12.10;7.43;;;;;;;16.80;94.98;99683.91;5008615;28;20050;-20
2023/06/03 01:43:03;;;;;;;10.47;8.00;;;;;;;16.69;95.74;99684.97;5008687;28;20042;-19
2023/06/03 01:45:28;;;;;;;11.95;7.75;;;;;;;16.56;96.86;99688.19;5008723;28;20034;-19
2023/06/03 01:47:54;;;;;;;12.18;7.70;;;;;;;16.26;96.86;99692.44;5008599;28;20935;-22
2023/06/03 01:50:22;;;;;;;10.25;7.35;;;;;;;16.12;97.72;99675.19;5008185;28;20133;-19
2023/06/03 01:52:47;;;;;;;;;;;;;;;16.38;97.56;99684.94;5009061;28;20018;-19
2023/06/03 01:55:12;;;;;;;12.77;8.00;;;;;;;16.54;94.82;99674.19;5008218;28;19917;-19
2023/06/03 01:57:38;;;;;;;11.75;8.48;;;;;;;16.65;93.15;99678.50;5008536;28;20034;-19
2023/06/03 02:00:07;;;;;;;13.02;7.53;;;;;;;16.12;96.80;99681.41;5008321;28;20064;-19
2023/06/03 02:02:32;;;;;;;10.00;7.70;;;;;;;15.90;98.91;99695.03;5008378;28;20037;-19
2023/06/03 02:04:58;;;;;;;12.18;8.27;;;;;;;16.16;96.58;99692.41;5008188;28;20018;-18
2023/06/03 02:07:26;;;;;;;12.38;7.70;;;;;;;16.01;97.05;99688.59;5008347;28;20033;-19
2023/06/03 02:09:53;;;;;;;12.75;8.30;;;;;;;15.96;98.10;99685.91;5008118;28;20125;-19
2023/06/03 02:12:21;;;;;;;14.15;8.52;;;;;;;15.60;100.00;99684.91;5008249;28;20040;-19
2023/06/03 02:14:47;;;;;;;13.32;8.50;;;;;;;15.71;98.12;99691.13;5008240;28;20053;-21
2023/06/03 02:17:15;;;;;;;12.82;8.27;;;;;;;15.54;100.00;99685.97;4990564;28;20434;-19
2023/06/03 02:19:40;;;;;;;;;;;;;;;15.70;98.70;99690.34;5008652;28;20060;-18
2023/06/03 02:22:06;;;;;;;10.88;8.10;;;;;;;15.64;98.44;99681.44;5007965;28;19909;-22
2023/06/03 02:24:32;;;;;;;11.25;8.75;;;;;;;15.51;100.00;99687.31;5007977;28;20033;-19
2023/06/03 02:27:01;;;;;;;15.15;8.73;;;;;;;15.57;99.54;99686.25;5007765;28;20022;-19
2023/06/03 02:29:27;;;;;;;12.10;8.98;;;;;;;15.73;98.98;99686.34;5007853;28;20056;-22
2023/06/03 02:31:54;;;;;;;12.82;8.43;;;;;;;15.50;100.00;99669.53;5007681;28;20034;-20
2023/06/03 02:34:21;;;;;;;12.63;8.13;;;;;;;15.19;100.00;99680.13;5007534;28;20088;-20
2023/06/03 02:36:47;;;;;;;10.48;7.65;;;;;;;15.18;100.00;99680.38;5007538;28;20112;-20
2023/06/03 02:39:13;;;;;;;10.38;8.20;;;;;;;15.30;100.00;99672.13;5007598;28;20460;-20
2023/06/03 02:41:41;;;;;;;10.95;8.02;;;;;;;15.42;100.00;99668.16;5007520;28;20049;-19
2023/06/03 02:44:07;;;;;;;12.45;8.30;;;;;;;15.37;100.00;99665.44;5006493;28;20192;-19
2023/06/03 02:46:33;;;;;;;13.88;8.02;;;;;;;15.71;100.00;99693.84;5007569;28;21034;-21
2023/06/03 02:49:03;;;;;;;16.42;8.13;;;;;;;15.57;100.00;99680.03;5007579;28;20134;-19
2023/06/03 02:51:29;;;;;;;10.05;8.00;;;;;;;15.83;100.00;99697.13;5007303;28;20034;-20
2023/06/03 02:53:54;;;;;;;11.10;7.88;;;;;;;15.17;100.00;99686.81;5007764;28;20030;-24
2023/06/03 02:56:22;;;;;;;9.43;7.25;;;;;;;15.33;100.00;99680.47;5007279;28;20464;-19
2023/06/03 02:58:48;;;;;;;12.13;7.53;;;;;;;15.55;100.00;99691.09;5007143;28;20026;-19
2023/06/03 03:01:14;;;;;;;11.40;7.50;;;;;;;15.67;100.00;99696.22;5007291;28;20033;-21
2023/06/03 03:03:40;;;;;;;11.48;7.40;;;;;;;15.70;99.77;99695.72;5007598;28;20030;-20
2023/06/03 03:06:06;;;;;;;10.30;7.47;;;;;;;15.57;100.00;99690.81;5007418;28;20022;-21
2023/06/03 03:08:33;;;;;;;10.75;7.80;;;;;;;15.44;100.00;99694.78;5007267;28;20066;-22
2023/06/03 03:10:58;;;;;;;11.48;7.13;;;;;;;15.18;100.00;99689.25;5006939;28;20041;-19
2023/06/03 03:13:24;;;;;;;10.75;7.53;;;;;;;15.20;100.00;99691.66;5007177;28;20018;-19
2023/06/03 03:15:49;;;;;;;10.30;7.88;;;;;;;15.60;100.00;99701.03;5006846;28;20133;-18
2023/06/03 03:18:15;;;;;;;10.75;7.97;;;;;;;15.53;100.00;99711.19;5006903;28;20589;-20
2023/06/03 03:20:40;;;;;;;11.15;7.78;;;;;;;15.59;100.00;99704.78;5006952;28;20044;-21
2023/06/03 03:23:07;;;;;;;12.10;8.32;;;;;;;15.67;100.00;99705.13;5007105;28;20420;-20
2023/06/03 03:25:34;;;;;;;9.88;7.63;;;;;;;15.33;100.00;99711.91;5006867;28;20041;-21
2023/06/03 03:28:00;;;;;;;12.05;7.80;;;;;;;15.32;100.00;99697.66;5006637;28;20493;-19
2023/06/03 03:30:25;;;;;;;13.63;8.57;;;;;;;15.88;100.00;99723.28;5007050;28;20062;-19
2023/06/03 03:32:51;;;;;;;12.50;8.43;;;;;;;15.88;100.00;99723.28;5006290;28;20057;-19
2023/06/03 03:35:20;;;;;;;15.25;8.48;;;;;;;16.03;100.00;99718.75;5006724;28;20048;-20
2023/06/03 03:37:49;;;;;;;11.90;8.45;;;;;;;16.00;100.00;99727.34;5006560;28;20030;-20
2023/06/03 03:40:22;;;;;;;11.25;7.63;;;;;;;15.72;100.00;99725.03;5006471;28;20030;-19
2023/06/03 03:42:51;;;;;;;14.27;8.52;;;;;;;15.84;100.00;99726.47;5005981;28;20046;-19
2023/06/03 03:45:19;;;;;;;12.43;8.13;;;;;;;16.13;100.00;99723.34;5006329;28;20129;-19
2023/06/03 03:47:49;;;;;;;11.30;8.38;;;;;;;16.36;100.00;99719.38;5006443;28;20487;-19
2023/06/03 03:50:50;;;;;;;14.60;8.50;;;;;;;16.33;100.00;99729.88;5005872;28;20041;-19
2023/06/03 03:53:23;;;;;;;13.27;8.65;;;;;;;16.38;100.00;99721.81;5006601;28;20037;-19
2023/06/03 03:55:50;;;;;;;13.20;8.85;;;;;;;16.40;100.00;99733.91;5006118;28;20030;-19
2023/06/03 03:58:37;;;;;;;11.73;9.18;;;;;;;16.53;100.00;99737.19;5006237;28;20048;-20
2023/06/03 04:01:12;;;;;;;17.48;10.40;;;;;;;16.65;100.00;99727.78;5006101;28;20042;-19
2023/06/03 04:03:40;;;;;;;13.07;9.05;;;;;;;16.63;100.00;99735.34;5006314;28;20034;-19
2023/06/03 04:06:13;;;;;;;11.93;9.68;;;;;;;16.72;100.00;99735.59;5006107;28;20112;-20
2023/06/03 04:08:40;;;;;;;12.40;8.98;;;;;;;16.75;100.00;99726.97;5006215;28;20037;-19
2023/06/03 04:11:16;;;;;;;13.23;9.05;;;;;;;16.76;100.00;99730.50;5005869;28;20116;-22
2023/06/03 04:13:42;;;;;;;14.02;9.18;;;;;;;16.87;100.00;99729.44;5005384;28;20029;-19
2023/06/03 04:16:10;;;;;;;12.30;8.75;;;;;;;16.86;100.00;99725.16;5005743;28;20480;-20
2023/06/03 04:18:42;;;;;;;15.32;9.20;;;;;;;16.65;100.00;99726.97;5005612;28;20408;-19
2023/06/03 04:21:17;;;;;;;21.08;10.27;;;;;;;16.76;100.00;99733.19;5005602;28;20480;-20
2023/06/03 04:23:43;;;;;;;13.73;9.25;;;;;;;16.83;100.00;99728.38;5005661;28;20029;-19
2023/06/03 04:26:09;;;;;;;14.05;9.57;;;;;;;16.93;100.00;99728.38;5005487;28;20045;-19
2023/06/03 04:28:37;;;;;;;15.15;10.18;;;;;;;17.08;100.00;99730.28;5005891;28;20468;-19
2023/06/03 04:31:03;;;;;;;11.93;10.20;;;;;;;17.09;100.00;99731.88;5005580;28;20489;-19
2023/06/03 04:33:28;;;;;;;14.02;9.75;;;;;;;17.04;100.00;99739.94;5005131;28;20052;-19
2023/06/03 04:35:54;;;;;;;13.55;9.70;;;;;;;17.08;100.00;99741.06;5005196;28;20084;-19
2023/06/03 04:38:19;;;;;;;12.85;9.02;;;;;;;16.87;100.00;99743.72;5005142;28;20033;-19
2023/06/03 04:40:46;;;;;;;13.90;9.88;;;;;;;17.10;100.00;99743.47;5005242;28;20057;-19
2023/06/03 04:43:14;;;;;;;13.82;9.82;;;;;;;17.25;100.00;99746.97;5002619;28;20467;-24
2023/06/03 04:45:39;;;;;;;11.85;10.10;;;;;;;17.19;100.00;99742.66;5005263;28;20034;-21
2023/06/03 04:48:05;;;;;;;12.63;9.95;;;;;;;16.86;100.00;99744.81;5005143;28;20026;-25
2023/06/03 04:50:34;;;;;;;14.25;10.13;;;;;;;16.67;100.00;99746.34;5002942;28;20033;-19
2023/06/03 04:53:00;;;;;;;13.07;9.95;;;;;;;16.79;100.00;99746.09;5005631;28;20036;-19
2023/06/03 04:55:26;;;;;;;12.52;10.00;;;;;;;17.01;100.00;99741.31;5005034;28;20428;-21
2023/06/03 04:57:54;;;;;;;13.20;10.35;;;;;;;17.19;100.00;99745.34;5005574;28;20430;-20
2023/06/03 05:00:21;;;;;;;11.98;10.25;;;;;;;17.04;100.00;99724.63;5005409;28;20038;-19
2023/06/03 05:02:54;;;;;;;14.10;10.77;;;;;;;17.06;100.00;99737.78;5005509;28;20026;-20
2023/06/03 05:05:22;;;;;;;16.98;11.68;;;;;;;17.20;100.00;99738.88;5005264;28;20532;-20
2023/06/03 05:07:48;;;;;;;13.70;10.68;;;;;;;17.10;100.00;99728.13;5006614;28;20057;-19
2023/06/03 05:10:13;;;;;;;14.35;10.98;;;;;;;17.18;100.00;99730.28;5008891;28;20064;-20
2023/06/03 05:12:40;;;;;;;16.50;11.70;;;;;;;17.22;100.00;99725.94;5009091;28;20378;-20
2023/06/03 05:15:07;;;;;;;15.65;11.50;;;;;;;17.69;100.00;99740.13;5008807;28;20037;-20
2023/06/03 05:17:33;;;;;;;13.98;11.43;;;;;;;18.22;99.21;99753.19;5009046;28;20113;-20
2023/06/03 05:19:58;;;;;;;15.32;11.95;;;;;;;18.29;100.00;99753.72;5008795;28;20112;-19
2023/06/03 05:22:23;;;;;;;18.70;12.75;;;;;;;18.34;99.65;99756.38;5009052;28;20025;-19
2023/06/03 05:24:49;;;;;;;15.10;11.93;;;;;;;18.31;100.00;99762.34;5009144;28;20028;-19
2023/06/03 05:27:14;;;;;;;15.88;11.60;;;;;;;18.43;99.91;99765.53;5009316;28;20037;-19
2023/06/03 05:29:40;;;;;;;15.52;11.98;;;;;;;18.61;99.55;99738.94;5008984;28;20041;-18
2023/06/03 05:32:05;;;;;;;15.65;12.57;;;;;;;18.74;98.38;99757.22;5009091;28;20033;-27
2023/06/03 05:34:31;;;;;;;16.15;12.40;;;;;;;18.80;97.79;99758.84;5009023;28;20028;-21
2023/06/03 05:36:56;;;;;;;16.52;13.90;;;;;;;18.84;99.27;99759.88;5008758;28;20468;-22
2023/06/03 05:39:21;;;;;;;17.27;14.07;;;;;;;18.92;98.85;99761.19;5008803;28;20097;-20
2023/06/03 05:41:47;;;;;;;15.88;14.07;;;;;;;19.04;98.80;99763.50;5008584;28;20472;-20
2023/06/03 05:44:12;;;;;;;16.00;12.45;;;;;;;19.20;96.61;99747.97;5009116;28;20072;-19
2023/06/03 05:46:38;;;;;;;16.08;12.50;;;;;;;19.46;94.18;99751.25;5008868;28;20021;-19
2023/06/03 05:49:03;;;;;;;17.45;13.25;;;;;;;19.80;93.33;99767.44;5008657;28;20040;-23
2023/06/03 05:51:28;;;;;;;14.80;12.70;;;;;;;19.91;91.81;99765.44;5008432;28;20033;-20
2023/06/03 05:53:54;;;;;;;16.20;12.32;;;;;;;20.30;89.90;99772.53;5008678;28;20025;-18
2023/06/03 05:56:19;;;;;;;15.82;12.50;;;;;;;20.43;85.69;99777.25;5008619;28;20736;-19
2023/06/03 05:58:45;;;;;;;15.05;10.60;;;;;;;20.62;85.46;99779.19;5008431;28;20539;-20
2023/06/03 06:01:10;;;;;;;14.15;10.30;;;;;;;20.70;81.25;99775.81;5008390;28;20402;-20
2023/06/03 06:03:35;;;;;;;16.00;10.02;;;;;;;20.72;80.79;99791.75;5008315;28;20041;-19
2023/06/03 06:06:01;;;;;;;14.15;9.77;;;;;;;21.04;81.93;99777.47;5008163;28;20030;-19
2023/06/03 06:08:28;;;;;;;14.05;9.35;;;;;;;21.10;77.89;99772.78;5008520;28;20101;-20
2023/06/03 06:10:53;;;;;;;11.15;8.40;;;;;;;21.06;74.07;99783.38;5007918;28;20140;-20
2023/06/03 06:13:18;;;;;;;10.30;8.48;;;;;;;21.35;74.84;99779.66;5008210;28;20087;-21
2023/06/03 06:15:58;;;;;;;10.45;8.85;;;;;;;21.39;72.46;99775.25;5008112;28;20036;-19
2023/06/03 06:18:24;;;;;;;13.32;8.63;;;;;;;21.22;71.97;99771.19;5007876;28;20030;-20
2023/06/03 06:20:50;;;;;;;11.85;9.00;;;;;;;21.31;74.23;99773.22;5008070;28;20030;-20
2023/06/03 06:23:15;;;;;;;11.00;9.25;;;;;;;21.39;73.61;99777.97;5008089;28;20419;-19
2023/06/03 06:25:50;;;;;;;12.63;9.30;;;;;;;21.32;72.90;99775.66;5007669;28;20675;-20
2023/06/03 06:28:20;;;;;;;13.73;9.23;;;;;;;21.18;73.97;99781.03;5007602;28;20032;-21
2023/06/03 06:30:46;;;;;;;11.80;9.15;;;;;;;21.10;75.77;99779.00;5007837;28;20068;-21
2023/06/03 06:33:16;;;;;;;16.50;9.27;;;;;;;21.32;76.36;99788.41;5008216;28;20516;-19
2023/06/03 06:35:42;;;;;;;12.32;9.43;;;;;;;21.36;76.40;99792.13;5008150;28;20068;-19
2023/06/03 06:38:08;;;;;;;13.90;10.13;;;;;;;21.31;75.55;99789.50;5007882;28;20025;-20
2023/06/03 06:40:34;;;;;;;12.27;9.38;;;;;;;21.19;73.89;99793.50;5007892;28;20034;-23
2023/06/03 06:43:01;;;;;;;14.48;9.93;;;;;;;21.05;76.00;99798.06;5007727;28;20038;-19
2023/06/03 06:45:33;;;;;;;14.48;10.50;;;;;;;21.06;76.72;99799.66;5007365;28;20037;-19
2023/06/03 06:48:08;;;;;;;11.98;9.52;;;;;;;21.12;75.25;99803.91;5007567;28;20489;-20
2023/06/03 06:50:48;;;;;;;14.68;10.35;;;;;;;21.11;75.72;99802.31;5007449;28;20087;-26
2023/06/03 06:53:16;;;;;;;15.70;10.88;;;;;;;21.06;75.36;99796.94;5007265;28;20044;-20
2023/06/03 06:55:44;;;;;;;14.43;11.10;;;;;;;21.16;78.91;99804.13;5007152;28;20030;-22
2023/06/03 06:58:10;;;;;;;14.13;10.45;;;;;;;21.27;77.62;99795.53;5007448;28;20113;-19
2023/06/03 07:00:36;;;;;;;15.07;11.57;;;;;;;21.30;76.86;99796.84;5006636;28;20128;-24
2023/06/03 07:03:02;;;;;;;13.52;10.52;;;;;;;21.37;77.76;99797.28;5006948;28;20030;-20
2023/06/03 07:05:27;;;;;;;14.88;11.02;;;;;;;21.50;79.34;99798.44;5007291;28;20049;-20
2023/06/03 07:07:52;;;;;;;17.75;11.13;;;;;;;21.76;71.68;99795.25;5006872;28;20025;-21
2023/06/03 07:10:21;;;;;;;14.27;12.30;;;;;;;21.63;73.96;99803.06;5006474;28;20076;-21
2023/06/03 07:12:51;;;;;;;14.02;10.60;;;;;;;21.53;73.45;99800.53;5006552;28;20044;-22
2023/06/03 07:15:20;;;;;;;16.10;12.48;;;;;;;21.77;74.01;99802.28;5006744;28;20112;-19
2023/06/03 07:18:03;;;;;;;14.77;10.80;;;;;;;21.78;73.47;99802.00;5006934;28;20021;-20
2023/06/03 07:20:32;;;;;;;13.65;11.48;;;;;;;21.82;73.69;99807.63;5005730;28;20034;-19
2023/06/03 07:22:57;;;;;;;13.68;10.90;;;;;;;22.02;70.64;99804.50;5006695;28;20022;-20
2023/06/03 07:25:38;;;;;;;14.48;10.93;;;;;;;22.28;75.04;99814.91;5006484;28;20024;-20
2023/06/03 07:28:26;;;;;;;16.48;12.23;;;;;;;22.52;71.31;99806.53;5006663;28;20408;-27
2023/06/03 07:30:52;;;;;;;15.00;11.02;;;;;;;22.78;69.10;99814.94;5005924;28;20038;-20
2023/06/03 07:33:34;;;;;;;14.15;11.13;;;;;;;22.96;69.42;99804.19;5006314;28;20432;-20
2023/06/03 07:36:02;;;;;;;20.45;11.45;;;;;;;23.12;68.07;99824.50;5006956;28;20030;-19
2023/06/03 07:38:36;;;;;;;14.35;10.40;;;;;;;23.35;67.42;99816.31;5006852;28;20026;-19
2023/06/03 07:41:01;;;;;;;16.02;9.95;;;;;;;23.46;63.17;99823.94;5006438;28;20081;-20
2023/06/03 07:43:27;;;;;;;15.13;10.40;;;;;;;23.61;63.93;99819.22;5006491;28;20057;-19
2023/06/03 07:45:53;;;;;;;14.15;10.10;;;;;;;23.87;65.30;99827.56;5006624;28;20026;-20
2023/06/03 07:48:19;;;;;;;11.23;9.63;;;;;;;24.20;62.38;99825.25;5005988;28;20049;-20
2023/06/03 07:50:47;;;;;;;53.60;19.27;;;;;;;24.54;61.02;99812.06;5005975;28;20033;-20
2023/06/03 07:53:21;;;;;;;98.57;30.23;;;;;;;24.70;58.34;99831.47;5005919;28;20655;-22
2023/06/03 07:55:47;;;;;;;157.00;40.53;;;;;;;24.51;60.48;99837.25;5006007;28;20030;-20
2023/06/03 07:58:15;;;;;;;13.98;8.90;;;;;;;24.78;58.95;99836.16;5006267;28;20026;-20
2023/06/03 08:00:45;;;;;;;11.48;8.10;;;;;;;25.17;57.81;99835.22;5006335;28;20073;-20
2023/06/03 08:03:19;;;;;;;58.83;19.23;;;;;;;25.12;55.89;99849.00;5006294;28;20029;-19
2023/06/03 08:05:49;;;;;;;287.00;62.33;;;;;;;24.99;61.00;99839.84;5006460;28;20200;-20
2023/06/03 08:08:17;;;;;;;37.33;13.10;;;;;;;25.12;58.87;99838.09;5006311;28;20149;-23
2023/06/03 08:10:44;;;;;;;;;;;;;;;25.00;56.53;99840.66;5005969;28;20489;-20
2023/06/03 08:13:09;;;;;;;51.70;17.13;;;;;;;25.03;55.99;99834.56;5006024;28;20388;-19
2023/06/03 08:15:35;;;;;;;18.25;8.63;;;;;;;25.25;55.61;99837.16;5005610;28;20037;-20
2023/06/03 08:18:08;;;;;;;63.58;18.52;;;;;;;25.32;54.13;99835.88;5006678;28;20504;-19
2023/06/03 08:20:36;;;;;;;27.80;11.00;;;;;;;25.08;56.16;99825.41;5006307;28;20091;-23
2023/06/03 08:23:02;;;;;;;19.35;9.65;;;;;;;25.11;55.44;99830.22;5006556;28;20056;-20
2023/06/03 08:25:28;;;;;;;13.20;7.90;;;;;;;25.22;55.94;99829.59;5006657;28;20068;-19
2023/06/03 08:27:53;;;;;;;10.68;6.78;;;;;;;25.34;55.28;99818.03;5006615;28;20026;-20
2023/06/03 08:30:20;;;;;;;9.48;6.43;;;;;;;25.77;52.14;99829.97;5006370;28;20026;-19
2023/06/03 08:32:48;;;;;;;10.17;6.50;;;;;;;26.22;49.93;99824.03;5006238;28;20064;-19
2023/06/03 08:35:19;;;;;;;14.13;6.80;;;;;;;26.51;48.69;99816.94;5006145;28;20029;-21
2023/06/03 08:37:44;;;;;;;8.27;5.72;;;;;;;26.75;48.74;99822.56;5006042;28;20033;-21
2023/06/03 08:40:11;;;;;;;8.43;5.47;;;;;;;26.81;47.98;99817.72;5005868;28;20026;-20
2023/06/03 08:42:47;;;;;;;10.70;5.60;;;;;;;27.22;45.68;99827.03;5008589;28;20467;-20
2023/06/03 08:45:18;;;;;;;9.32;6.30;;;;;;;27.38;47.17;99832.66;5010092;28;20265;-19
2023/06/03 08:48:02;;;;;;;10.90;6.25;;;;;;;27.36;46.81;99833.03;5009957;28;20099;-20
2023/06/03 08:50:28;;;;;;;9.35;6.22;;;;;;;27.41;47.86;99826.53;5009911;28;20040;-19
2023/06/03 08:52:54;;;;;;;9.35;6.70;;;;;;;27.77;44.71;99825.81;5010031;28;20030;-19
2023/06/03 08:55:21;;;;;;;10.65;5.95;;;;;;;28.35;44.85;99830.44;5010005;28;20029;-23
2023/06/03 08:57:58;;;;;;;9.00;6.13;;;;;;;28.15;47.85;99823.91;5009486;28;20038;-20
2023/06/03 09:00:26;;;;;;;9.60;5.90;;;;;;;27.80;47.31;99824.34;5009944;28;20038;-19
2023/06/03 09:02:52;;;;;;;8.70;5.65;;;;;;;27.55;47.78;99821.56;5009842;28;20037;-20
2023/06/03 09:05:21;;;;;;;10.80;5.95;;;;;;;27.07;47.41;99825.69;5009715;28;20060;-19
2023/06/03 09:07:47;;;;;;;10.70;6.25;;;;;;;27.63;47.37;99822.59;5009415;28;20083;-20
2023/06/03 09:10:17;;;;;;;7.28;5.20;;;;;;;28.14;48.12;99822.34;5009540;28;20072;-20
2023/06/03 09:12:50;;;;;;;10.35;6.20;;;;;;;28.74;44.55;99812.44;5009707;28;20018;-20
2023/06/03 09:15:16;;;;;;;9.10;6.10;;;;;;;28.86;44.77;99819.84;5009516;28;20061;-20
2023/06/03 09:17:42;;;;;;;10.40;6.40;;;;;;;28.78;47.23;99818.03;5009478;28;20034;-20
2023/06/03 09:20:09;;;;;;;11.75;5.53;;;;;;;28.83;44.25;99821.34;5009632;28;20034;-19
2023/06/03 09:22:36;;;;;;;9.15;5.10;;;;;;;28.92;43.34;99828.63;5009515;28;20022;-20
2023/06/03 09:25:03;;;;;;;9.30;4.78;;;;;;;29.03;41.62;99821.47;5009563;28;20425;-19
2023/06/03 09:27:28;;;;;;;7.18;4.85;;;;;;;28.93;40.45;99819.22;5009346;28;20501;-20
2023/06/03 09:29:54;;;;;;;7.63;5.10;;;;;;;28.44;43.87;99820.13;5009081;28;20034;-19
2023/06/03 09:32:20;;;;;;;6.63;4.80;;;;;;;28.79;42.37;99819.63;5008922;28;20030;-20
2023/06/03 09:34:46;;;;;;;8.65;5.38;;;;;;;29.14;43.02;99825.38;5009114;28;20018;-20
2023/06/03 09:37:12;;;;;;;8.98;5.28;;;;;;;29.39;41.08;99819.75;5008242;28;20700;-20
2023/06/03 09:39:38;;;;;;;10.27;5.05;;;;;;;29.68;41.13;99820.50;5009217;28;20030;-20
2023/06/03 09:42:04;;;;;;;8.70;5.75;;;;;;;29.37;41.75;99822.06;5009371;28;20838;-20
2023/06/03 09:44:41;;;;;;;8.23;5.30;;;;;;;29.10;41.42;99818.94;5009564;28;20045;-21
2023/06/03 09:47:07;;;;;;;8.82;5.22;;;;;;;29.01;42.29;99823.78;5009390;28;20026;-21
2023/06/03 09:49:32;;;;;;;7.57;5.00;;;;;;;28.70;43.19;99811.53;5009482;28;20032;-19
2023/06/03 09:51:58;;;;;;;9.65;5.70;;;;;;;29.00;45.23;99816.69;5009529;28;20030;-19
2023/06/03 09:54:24;;;;;;;7.32;4.90;;;;;;;29.52;40.68;99824.00;5007147;28;20048;-21
2023/06/03 09:56:51;;;;;;;6.80;4.55;;;;;;;29.54;41.64;99818.97;5007197;28;20034;-20
2023/06/03 09:59:22;;;;;;;8.98;4.95;;;;;;;29.58;40.27;99808.88;5007570;28;20468;-19
2023/06/03 10:01:51;;;;;;;6.30;4.80;;;;;;;29.48;41.22;99814.88;5008006;28;20091;-20
2023/06/03 10:04:37;;;;;;;7.35;4.30;;;;;;;29.31;39.06;99829.75;5008383;28;20025;-19
2023/06/03 10:07:10;;;;;;;7.80;5.70;;;;;;;29.44;41.70;99824.97;5007913;28;20033;-20
2023/06/03 10:09:36;;;;;;;6.40;4.28;;;;;;;29.40;41.14;99827.66;5008077;28;20025;-21
2023/06/03 10:12:02;;;;;;;8.10;4.72;;;;;;;29.03;39.46;99818.75;5008329;28;20040;-21
2023/06/03 10:14:28;;;;;;;7.22;4.63;;;;;;;28.59;43.47;99822.19;5007769;28;20030;-20
2023/06/03 10:17:08;;;;;;;8.35;4.78;;;;;;;28.44;44.31;99820.94;5008118;28;20053;-19
2023/06/03 10:19:38;;;;;;;9.50;4.88;;;;;;;28.61;42.55;99819.13;5008179;28;20394;-19
2023/06/03 10:22:05;;;;;;;9.60;4.45;;;;;;;28.59;40.57;99827.69;5007760;28;20211;-20
2023/06/03 10:24:33;;;;;;;7.25;4.45;;;;;;;28.39;42.12;99823.91;5007895;28;20057;-20
2023/06/03 10:26:59;;;;;;;7.95;4.50;;;;;;;28.30;43.74;99825.16;5008112;28;20045;-19
2023/06/03 10:29:25;;;;;;;7.13;4.05;;;;;;;28.39;42.32;99834.88;5007751;28;20026;-20
2023/06/03 10:31:54;;;;;;;8.82;4.60;;;;;;;28.48;42.33;99833.94;5007859;28;20464;-20
2023/06/03 10:34:20;;;;;;;6.63;4.05;;;;;;;28.37;45.79;99820.72;5007972;28;20491;-20
2023/06/03 10:36:56;;;;;;;7.60;4.28;;;;;;;28.43;43.35;99827.56;5007733;28;20484;-20
2023/06/03 10:39:24;;;;;;;7.68;4.63;;;;;;;28.72;42.66;99820.22;5007577;28;20057;-19
2023/06/03 10:41:51;;;;;;;7.25;4.10;;;;;;;28.89;41.40;99837.53;5005316;28;20118;-19
2023/06/03 10:44:19;;;;;;;9.35;4.43;;;;;;;29.11;43.64;99837.03;5004864;28;20103;-19
2023/06/03 10:47:07;;;;;;;7.72;4.72;;;;;;;29.02;42.57;99831.66;5006711;28;20044;-24
2023/06/03 10:50:15;;;;;;;6.47;4.30;;;;;;;29.22;43.00;99827.16;5006532;28;20030;-19
2023/06/03 10:53:09;;;;;;;9.25;4.88;;;;;;;29.00;44.40;99835.91;5004750;28;20121;-20
2023/06/03 10:56:02;;;;;;;6.63;4.47;;;;;;;29.16;42.06;99823.06;5006001;28;20737;-26
2023/06/03 10:58:30;;;;;;;17.10;5.05;;;;;;;28.55;44.10;99831.47;5003621;28;20121;-19
2023/06/03 11:00:58;;;;;;;8.68;4.68;;;;;;;28.68;43.84;99819.31;5006408;28;20018;-23
2023/06/03 11:03:54;;;;;;;8.98;5.00;;;;;;;28.87;44.45;99826.91;5006367;28;20045;-25
2023/06/03 11:06:22;;;;;;;8.00;4.45;;;;;;;28.88;43.39;99822.25;4978693;28;20104;-21
2023/06/03 11:09:03;;;;;;;9.02;4.82;;;;;;;29.23;43.37;99822.47;5005818;28;20022;-19
2023/06/03 11:11:41;;;;;;;13.60;5.20;;;;;;;29.27;42.99;99825.31;5006007;28;20080;-19
2023/06/03 11:14:11;;;;;;;8.93;5.47;;;;;;;29.12;45.95;99816.69;5005527;28;20816;-20
2023/06/03 11:16:55;;;;;;;10.30;5.32;;;;;;;29.32;44.63;99808.56;5005533;28;20075;-20
2023/06/03 11:19:34;;;;;;;11.68;5.22;;;;;;;29.22;43.32;99816.19;5006337;28;20117;-19
2023/06/03 11:22:07;;;;;;;9.65;5.85;;;;;;;29.08;45.05;99812.22;5006096;28;20033;-21
2023/06/03 11:24:38;;;;;;;21.45;6.95;;;;;;;29.00;45.53;99836.72;5005395;28;20137;-20
2023/06/03 11:27:13;;;;;;;9.35;5.07;;;;;;;28.82;46.83;99825.22;5006029;28;20382;-19
2023/06/03 11:29:59;;;;;;;6.95;5.07;;;;;;;28.61;48.14;99813.63;4998296;28;20104;-19
2023/06/03 11:32:24;;;;;;;8.15;4.82;;;;;;;28.43;47.96;99830.28;5005466;28;20084;-19